Time;durP1;ratioP1;P1;durP2;ratioP2;P2;SDS_P1;SDS_P2;PMS_P1;PMS_P2;Temp;Humidity;BMP_temperature;BMP_pressure;BME280_temperature;BME280_humidity;BME280_pressure;Samples;Min_cycle;Max_cycle;Signal;HPM_P1;HPM_P2
2024/02/03 00:02:00;;;;;;;21.73;3.60;;;;;;;9.95;100.00;101888.25;4997143;28;20124;-96
2024/02/03 00:04:25;;;;;;;24.52;6.32;;;;;;;9.92;100.00;101888.34;4996626;28;20035;-94
2024/02/03 00:06:51;;;;;;;19.35;4.07;;;;;;;9.98;100.00;101893.34;4995130;28;20034;-94
2024/02/03 00:09:16;;;;;;;18.00;3.80;;;;;;;9.96;100.00;101885.63;5014025;28;20034;-94
2024/02/03 00:11:46;;;;;;;20.98;3.83;;;;;;;9.87;100.00;101880.75;5014150;28;20053;-92
2024/02/03 00:14:12;;;;;;;20.73;5.10;;;;;;;9.96;100.00;101897.69;5014253;28;20026;-94
2024/02/03 00:16:37;;;;;;;23.75;5.22;;;;;;;9.90;100.00;101880.69;4996564;28;20498;-94
2024/02/03 00:19:03;;;;;;;18.60;5.47;;;;;;;9.91;100.00;101886.69;5014043;28;20037;-95
2024/02/03 00:21:28;;;;;;;28.65;6.22;;;;;;;9.94;100.00;101886.59;4996210;28;20451;-94
2024/02/03 00:23:53;;;;;;;33.42;6.20;;;;;;;9.94;100.00;101890.00;4996486;28;20026;-95
2024/02/03 00:26:19;;;;;;;34.65;7.57;;;;;;;9.88;100.00;101884.22;5013990;28;20021;-94
2024/02/03 00:28:44;;;;;;;27.02;6.20;;;;;;;9.86;100.00;101885.09;5013994;28;20034;-94
2024/02/03 00:31:10;;;;;;;30.17;6.20;;;;;;;9.96;100.00;101887.38;5013512;28;20108;-96
2024/02/03 00:33:35;;;;;;;28.77;7.07;;;;;;;9.94;100.00;101878.84;5014013;28;20032;-93
2024/02/03 00:36:00;;;;;;;24.10;4.82;;;;;;;9.94;100.00;101873.69;5013567;28;20057;-94
2024/02/03 00:38:26;;;;;;;22.80;6.97;;;;;;;9.93;100.00;101864.28;5013603;28;20661;-94
2024/02/03 00:40:51;;;;;;;25.90;5.88;;;;;;;9.97;100.00;101868.41;4995936;28;20036;-94
2024/02/03 00:43:17;;;;;;;23.42;6.05;;;;;;;9.91;100.00;101858.31;5013418;28;20021;-94
2024/02/03 00:45:43;;;;;;;29.73;5.20;;;;;;;9.93;100.00;101864.28;4995994;28;20108;-94
2024/02/03 00:48:09;;;;;;;28.00;5.32;;;;;;;9.95;100.00;101867.63;4995735;28;20390;-94
2024/02/03 00:50:34;;;;;;;17.55;4.30;;;;;;;9.88;100.00;101855.84;4995921;28;20022;-94
2024/02/03 00:53:00;;;;;;;21.00;4.93;;;;;;;9.88;100.00;101861.84;4995946;28;20414;-94
2024/02/03 00:55:25;;;;;;;27.40;4.90;;;;;;;9.93;100.00;101859.13;4995495;28;20137;-95
2024/02/03 00:57:50;;;;;;;26.10;4.65;;;;;;;9.93;100.00;101859.94;4995530;28;20026;-95
2024/02/03 01:00:16;;;;;;;29.88;4.93;;;;;;;9.92;100.00;101860.00;4995657;28;20498;-95
2024/02/03 01:02:42;;;;;;;26.88;4.55;;;;;;;9.82;100.00;101852.53;5013339;28;20018;-93
2024/02/03 01:05:08;;;;;;;25.17;3.85;;;;;;;9.96;100.00;101859.00;5013168;28;20037;-94
2024/02/03 01:07:34;;;;;;;22.88;4.05;;;;;;;9.96;100.00;101851.28;4995211;28;20093;-95
2024/02/03 01:09:59;;;;;;;30.83;5.03;;;;;;;9.92;100.00;101847.09;4995358;28;20061;-95
2024/02/03 01:12:25;;;;;;;22.20;4.15;;;;;;;9.88;100.00;101845.53;5013123;28;20059;-95
2024/02/03 01:14:50;;;;;;;20.92;3.55;;;;;;;9.96;100.00;101846.13;4995707;28;20053;-95
2024/02/03 01:17:16;;;;;;;19.67;4.35;;;;;;;9.95;100.00;101847.00;4995327;28;20030;-94
2024/02/03 01:19:41;;;;;;;18.70;3.50;;;;;;;9.84;100.00;101837.88;5012684;28;20032;-95
2024/02/03 01:22:07;;;;;;;10.90;2.80;;;;;;;9.84;100.00;101845.59;4995511;28;20449;-94
2024/02/03 01:24:32;;;;;;;19.95;3.17;;;;;;;9.93;100.00;101838.47;4995517;28;20447;-94
2024/02/03 01:26:58;;;;;;;16.92;3.33;;;;;;;9.93;100.00;101841.91;5013005;28;20030;-94
2024/02/03 01:29:23;;;;;;;12.15;2.53;;;;;;;9.91;100.00;101840.25;4995477;28;20022;-95
2024/02/03 01:31:48;;;;;;;16.70;2.60;;;;;;;9.97;100.00;101834.88;5012932;28;20117;-95
2024/02/03 01:34:14;;;;;;;22.65;2.88;;;;;;;10.01;100.00;101828.75;4995173;28;20120;-94
2024/02/03 01:36:39;;;;;;;14.57;3.45;;;;;;;9.97;100.00;101825.44;5012456;28;20097;-94
2024/02/03 01:39:06;;;;;;;18.00;3.30;;;;;;;9.99;100.00;101825.38;4995334;28;20056;-94
2024/02/03 01:41:32;;;;;;;22.85;3.08;;;;;;;10.07;100.00;101825.94;4995344;28;20057;-95
2024/02/03 01:43:57;;;;;;;20.58;4.25;;;;;;;9.90;100.00;101834.28;4995400;28;20483;-94
2024/02/03 01:46:23;;;;;;;15.13;3.28;;;;;;;9.97;100.00;101834.88;5012344;28;20452;-94
2024/02/03 01:48:49;;;;;;;16.23;3.17;;;;;;;10.03;100.00;101834.72;5012545;28;20035;-94
2024/02/03 01:51:19;;;;;;;20.65;3.75;;;;;;;10.05;100.00;101830.34;4995037;28;20236;-95
2024/02/03 01:53:46;;;;;;;15.50;3.65;;;;;;;10.00;100.00;101834.81;4995009;28;20021;-94
2024/02/03 01:56:15;;;;;;;23.83;4.20;;;;;;;10.05;100.00;101832.91;4995228;28;20022;-93
2024/02/03 01:58:41;;;;;;;21.63;4.53;;;;;;;10.15;100.00;101833.47;4994781;28;20042;-95
2024/02/03 02:01:07;;;;;;;28.52;4.18;;;;;;;10.11;100.00;101834.44;4994725;28;20133;-94
2024/02/03 02:03:32;;;;;;;25.77;4.85;;;;;;;10.11;100.00;101824.97;5012348;28;20367;-95
2024/02/03 02:05:58;;;;;;;28.13;4.03;;;;;;;9.99;100.00;101836.53;4994979;28;20022;-94
2024/02/03 02:08:35;;;;;;;27.10;4.93;;;;;;;9.96;100.00;101838.38;4995068;28;20487;-93
2024/02/03 02:11:06;;;;;;;29.15;3.63;;;;;;;10.01;100.00;101836.50;4994558;28;20057;-94
2024/02/03 02:13:31;;;;;;;23.33;3.55;;;;;;;10.06;100.00;101834.59;4994686;28;20030;-95
2024/02/03 02:15:57;;;;;;;18.25;3.50;;;;;;;10.04;100.00;101838.97;5012415;28;20026;-95
2024/02/03 02:18:26;;;;;;;20.83;4.95;;;;;;;9.95;100.00;101836.66;4994854;28;20076;-94
2024/02/03 02:20:52;;;;;;;19.75;4.20;;;;;;;10.02;100.00;101840.75;4994896;28;20033;-95
2024/02/03 02:23:17;;;;;;;25.85;3.80;;;;;;;10.06;100.00;101844.91;4994633;28;20083;-94
2024/02/03 02:25:43;;;;;;;26.88;4.43;;;;;;;10.01;100.00;101841.66;5012149;28;20030;-94
2024/02/03 02:28:09;;;;;;;26.45;4.45;;;;;;;10.00;100.00;101839.97;4994629;28;20117;-94
2024/02/03 02:30:34;;;;;;;25.92;5.50;;;;;;;10.04;100.00;101841.53;4996048;28;20116;-94
2024/02/03 02:33:00;;;;;;;29.40;5.03;;;;;;;10.06;100.00;101834.59;4997223;28;20430;-95
2024/02/03 02:35:26;;;;;;;35.47;6.30;;;;;;;9.91;100.00;101837.69;5015679;28;20489;-95
2024/02/03 02:37:52;;;;;;;43.00;4.80;;;;;;;9.89;100.00;101840.31;4998384;28;20030;-95
2024/02/03 02:40:18;;;;;;;27.35;5.72;;;;;;;9.97;100.00;101840.06;4998479;28;20026;-93
2024/02/03 02:42:43;;;;;;;33.38;5.50;;;;;;;9.98;100.00;101834.00;4998411;28;20099;-94
2024/02/03 02:45:09;;;;;;;27.67;5.10;;;;;;;9.96;100.00;101833.22;4998157;28;20135;-94
2024/02/03 02:47:34;;;;;;;27.83;5.60;;;;;;;9.94;100.00;101835.00;4998159;28;20041;-94
2024/02/03 02:50:00;;;;;;;18.08;4.60;;;;;;;9.93;100.00;101834.16;4997866;28;20030;-94
2024/02/03 02:52:25;;;;;;;28.88;5.22;;;;;;;9.93;100.00;101843.66;4997921;28;20040;-95
2024/02/03 02:54:51;;;;;;;33.20;5.90;;;;;;;9.89;100.00;101836.88;4998192;28;20034;-94
2024/02/03 02:57:16;;;;;;;23.67;4.50;;;;;;;9.88;100.00;101835.22;5015241;28;20029;-95
2024/02/03 02:59:42;;;;;;;38.38;5.90;;;;;;;9.95;100.00;101839.25;4997940;28;20054;-94
2024/02/03 03:02:07;;;;;;;23.88;4.90;;;;;;;9.93;100.00;101841.06;4998258;28;20026;-94
2024/02/03 03:04:33;;;;;;;36.13;5.57;;;;;;;9.93;100.00;101843.66;5015939;28;20029;-94
2024/02/03 03:06:58;;;;;;;32.35;5.60;;;;;;;9.88;100.00;101842.94;4998044;28;20036;-95
2024/02/03 03:09:25;;;;;;;26.13;5.45;;;;;;;9.95;100.00;101840.13;4998115;28;20440;-96
2024/02/03 03:11:50;;;;;;;19.58;4.35;;;;;;;9.97;100.00;101838.34;4998321;28;20117;-95
2024/02/03 03:14:16;;;;;;;34.83;6.70;;;;;;;9.96;100.00;101836.63;5015777;28;20402;-95
2024/02/03 03:16:41;;;;;;;35.50;6.50;;;;;;;9.96;100.00;101830.63;5015782;28;20030;-96
2024/02/03 03:19:07;;;;;;;34.45;7.25;;;;;;;9.95;100.00;101831.50;5000075;28;20026;-94
2024/02/03 03:21:32;;;;;;;30.63;4.78;;;;;;;9.94;100.00;101833.25;5015762;28;20117;-93
2024/02/03 03:23:58;;;;;;;25.92;5.53;;;;;;;9.95;100.00;101831.50;4997820;28;20026;-96
2024/02/03 03:26:24;;;;;;;31.70;6.82;;;;;;;9.88;100.00;101820.56;4998062;28;20033;-96
2024/02/03 03:28:49;;;;;;;32.20;7.18;;;;;;;9.93;100.00;101812.69;4997655;28;20115;-94
2024/02/03 03:31:15;;;;;;;33.15;5.93;;;;;;;9.92;100.00;101796.34;4997441;28;20018;-93
2024/02/03 03:33:40;;;;;;;27.15;5.47;;;;;;;9.92;100.00;101800.66;4997725;28;20030;-94
2024/02/03 03:36:06;;;;;;;31.70;6.13;;;;;;;9.87;100.00;101803.41;5015365;28;20040;-94
2024/02/03 03:38:31;;;;;;;32.20;6.05;;;;;;;9.96;100.00;101790.22;4997670;28;20030;-93
2024/02/03 03:40:57;;;;;;;35.42;5.63;;;;;;;9.85;100.00;101790.56;4997495;28;20037;-94
2024/02/03 03:43:22;;;;;;;32.53;5.70;;;;;;;9.94;100.00;101796.31;4997406;28;20018;-94
2024/02/03 03:45:48;;;;;;;37.10;5.70;;;;;;;9.99;100.00;101797.00;4997965;28;20021;-94
2024/02/03 03:48:14;;;;;;;32.80;7.60;;;;;;;9.93;100.00;101797.22;4997437;28;20022;-96
2024/02/03 03:50:40;;;;;;;26.73;6.28;;;;;;;9.92;100.00;101801.50;4996492;28;20365;-94
2024/02/03 03:53:05;;;;;;;29.65;6.18;;;;;;;9.96;100.00;101804.84;4996702;28;20057;-93
2024/02/03 03:55:31;;;;;;;26.08;5.40;;;;;;;10.00;100.00;101799.53;5014680;28;20045;-94
2024/02/03 03:57:56;;;;;;;26.95;4.70;;;;;;;9.93;100.00;101797.22;4997661;28;20026;-94
2024/02/03 04:00:22;;;;;;;27.30;5.55;;;;;;;9.95;100.00;101795.41;4997577;28;20476;-95
2024/02/03 04:02:47;;;;;;;30.45;6.80;;;;;;;9.89;100.00;101800.78;5014923;28;20076;-94
2024/02/03 04:05:13;;;;;;;26.27;4.68;;;;;;;9.95;100.00;101801.44;4997064;28;20084;-96
2024/02/03 04:07:39;;;;;;;25.30;4.35;;;;;;;9.93;100.00;101799.78;4998174;28;20030;-94
2024/02/03 04:10:05;;;;;;;26.92;4.43;;;;;;;9.90;100.00;101800.75;4996838;28;20415;-94
2024/02/03 04:12:30;;;;;;;19.45;5.18;;;;;;;9.77;100.00;101791.69;4998390;28;20030;-92
2024/02/03 04:14:55;;;;;;;35.95;5.30;;;;;;;9.88;100.00;101793.94;5077258;23;20548;-94
2024/02/03 04:17:21;;;;;;;24.73;4.25;;;;;;;9.88;100.00;101789.63;5014001;28;20029;-94
2024/02/03 04:19:46;;;;;;;20.13;5.00;;;;;;;9.77;100.00;101792.53;5014427;28;20527;-93
2024/02/03 04:22:12;;;;;;;37.88;7.85;;;;;;;9.84;100.00;101798.34;4996362;28;20030;-94
2024/02/03 04:24:38;;;;;;;24.33;6.13;;;;;;;9.88;100.00;101781.91;4996616;28;20037;-95
2024/02/03 04:27:04;;;;;;;28.67;5.82;;;;;;;9.91;100.00;101783.53;4995870;28;20030;-94
2024/02/03 04:29:29;;;;;;;33.28;5.68;;;;;;;9.97;100.00;101783.31;4996375;28;20063;-95
2024/02/03 04:31:54;;;;;;;37.97;6.45;;;;;;;9.96;100.00;101773.91;4996286;28;20483;-94
2024/02/03 04:34:20;;;;;;;36.25;6.13;;;;;;;9.92;100.00;101762.81;5013999;28;20030;-94
2024/02/03 04:36:48;;;;;;;34.38;6.53;;;;;;;9.99;100.00;101763.47;4996248;28;20061;-95
2024/02/03 04:39:14;;;;;;;28.13;4.15;;;;;;;9.91;100.00;101778.38;4996272;28;20097;-94
2024/02/03 04:41:40;;;;;;;22.73;5.22;;;;;;;9.98;100.00;101772.13;4995816;28;20037;-94
2024/02/03 04:44:05;;;;;;;27.88;4.97;;;;;;;9.96;100.00;101773.91;5013865;28;20093;-95
2024/02/03 04:46:31;;;;;;;25.75;5.95;;;;;;;9.95;100.00;101773.06;4996504;28;20022;-95
2024/02/03 04:48:57;;;;;;;28.30;5.28;;;;;;;9.93;100.00;101776.59;4996309;28;20025;-95
2024/02/03 04:51:22;;;;;;;30.60;4.85;;;;;;;9.91;100.00;101762.91;4995665;28;20029;-95
2024/02/03 04:53:47;;;;;;;26.77;5.10;;;;;;;9.88;100.00;101763.00;4995830;28;20113;-95
2024/02/03 04:56:14;;;;;;;29.25;4.40;;;;;;;9.94;100.00;101770.53;4996015;28;20021;-96
2024/02/03 04:58:39;;;;;;;26.13;4.35;;;;;;;9.90;100.00;101756.91;5013115;28;20463;-95
2024/02/03 05:01:04;;;;;;;37.65;5.32;;;;;;;9.96;100.00;101766.16;4996518;28;20022;-95
2024/02/03 05:03:31;;;;;;;26.42;5.15;;;;;;;9.87;100.00;101772.44;5012424;28;20049;-94
2024/02/03 05:06:03;;;;;;;31.13;4.63;;;;;;;9.82;100.00;101764.88;4996189;28;20029;-94
2024/02/03 05:08:28;;;;;;;;;;;;;;;9.91;100.00;101771.47;4996052;28;20104;-94
2024/02/03 05:10:54;;;;;;;29.80;3.80;;;;;;;9.86;100.00;101769.03;5013572;28;19917;-95
2024/02/03 05:13:19;;;;;;;28.65;4.78;;;;;;;9.70;100.00;101765.25;4995111;28;20532;-94
2024/02/03 05:15:44;;;;;;;31.30;5.55;;;;;;;9.86;100.00;101760.47;4995842;28;20073;-94
2024/02/03 05:18:10;;;;;;;34.33;4.20;;;;;;;9.85;100.00;101777.69;4995474;28;20076;-95
2024/02/03 05:20:35;;;;;;;19.65;3.70;;;;;;;9.76;100.00;101766.81;4996015;28;20042;-96
2024/02/03 05:23:00;;;;;;;30.98;4.15;;;;;;;9.93;100.00;101766.28;4995844;28;20491;-94
2024/02/03 05:25:26;;;;;;;23.15;4.63;;;;;;;9.89;100.00;101773.25;4996101;28;20018;-95
2024/02/03 05:27:51;;;;;;;29.75;4.00;;;;;;;9.85;100.00;101769.94;4994895;28;20109;-96
2024/02/03 05:30:16;;;;;;;24.98;4.53;;;;;;;9.92;100.00;101772.31;5012063;28;20022;-95
2024/02/03 05:32:42;;;;;;;30.45;3.92;;;;;;;9.96;100.00;101776.47;5012922;28;20088;-95
2024/02/03 05:35:07;;;;;;;25.65;3.22;;;;;;;9.86;100.00;101781.94;5011670;28;20459;-94
2024/02/03 05:37:33;;;;;;;21.05;3.13;;;;;;;9.90;100.00;101772.38;5012699;28;20033;-93
2024/02/03 05:39:58;;;;;;;20.02;3.50;;;;;;;9.99;100.00;101781.53;5012573;28;20379;-94
2024/02/03 05:42:29;;;;;;;18.33;3.20;;;;;;;9.96;100.00;101789.38;5012083;28;20102;-94
2024/02/03 05:44:54;;;;;;;24.92;3.88;;;;;;;9.95;100.00;101785.97;5011254;28;20028;-94
2024/02/03 05:47:20;;;;;;;22.58;3.35;;;;;;;9.88;100.00;101784.47;4995678;28;20109;-95
2024/02/03 05:49:45;;;;;;;23.40;4.35;;;;;;;9.95;100.00;101779.94;4995745;28;20503;-96
2024/02/03 05:52:10;;;;;;;23.00;4.30;;;;;;;9.94;100.00;101783.41;4995453;28;20026;-95
2024/02/03 05:54:36;;;;;;;21.90;3.72;;;;;;;9.90;100.00;101776.66;4996159;28;20391;-95
2024/02/03 05:57:02;;;;;;;17.65;3.72;;;;;;;9.93;100.00;101781.75;4995111;28;20025;-96
2024/02/03 05:59:27;;;;;;;14.70;3.97;;;;;;;9.96;100.00;101771.31;4995521;28;20041;-96
2024/02/03 06:01:52;;;;;;;20.98;3.35;;;;;;;9.94;100.00;101773.94;4995808;28;20025;-95
2024/02/03 06:04:18;;;;;;;28.00;4.00;;;;;;;9.97;100.00;101773.00;4997229;28;20026;-96
2024/02/03 06:06:43;;;;;;;28.27;4.10;;;;;;;9.97;100.00;101778.16;4999497;28;20022;-95
2024/02/03 06:09:08;;;;;;;28.13;3.65;;;;;;;9.90;100.00;101776.66;4999228;28;20030;-94
2024/02/03 06:11:34;;;;;;;20.13;3.95;;;;;;;10.00;100.00;101778.06;4998383;28;20055;-94
2024/02/03 06:13:59;;;;;;;31.23;3.33;;;;;;;9.99;100.00;101778.94;4999127;28;20499;-96
2024/02/03 06:16:24;;;;;;;17.00;4.05;;;;;;;10.03;100.00;101776.22;4999415;28;20022;-95
2024/02/03 06:18:50;;;;;;;29.52;3.55;;;;;;;10.06;100.00;101780.44;4999185;28;20029;-95
2024/02/03 06:21:15;;;;;;;24.35;3.92;;;;;;;10.06;100.00;101783.00;4999342;28;20395;-95
2024/02/03 06:23:41;;;;;;;25.42;3.90;;;;;;;10.04;100.00;101780.47;4999261;28;20109;-95
2024/02/03 06:26:06;;;;;;;24.38;4.50;;;;;;;10.05;100.00;101773.59;4999191;28;20030;-95
2024/02/03 06:28:32;;;;;;;33.00;4.95;;;;;;;10.02;100.00;101771.09;4998808;28;20384;-95
2024/02/03 06:30:57;;;;;;;35.67;5.18;;;;;;;9.90;100.00;101776.66;4999259;28;20018;-95
2024/02/03 06:33:22;;;;;;;23.80;4.57;;;;;;;10.00;100.00;101757.44;5016260;28;20065;-94
2024/02/03 06:35:48;;;;;;;31.63;7.63;;;;;;;10.01;100.00;101777.16;4998946;28;20030;-94
2024/02/03 06:38:14;;;;;;;30.67;4.57;;;;;;;9.98;100.00;101772.13;4999131;28;20030;-94
2024/02/03 06:40:40;;;;;;;27.52;4.63;;;;;;;10.10;100.00;101773.44;4999029;28;20022;-94
2024/02/03 06:43:05;;;;;;;23.63;3.95;;;;;;;10.01;100.00;101774.59;4998747;28;20025;-95
2024/02/03 06:45:32;;;;;;;26.50;4.55;;;;;;;9.99;100.00;101766.06;4998571;28;20026;-94
2024/02/03 06:47:58;;;;;;;25.63;4.95;;;;;;;10.01;100.00;101777.16;4998282;28;20448;-96
2024/02/03 06:50:23;;;;;;;33.03;8.75;;;;;;;9.81;100.00;101773.50;4999093;28;20026;-94
2024/02/03 06:52:48;;;;;;;26.20;4.50;;;;;;;9.87;100.00;101777.63;4998318;28;20034;-94
2024/02/03 06:55:14;;;;;;;23.52;4.70;;;;;;;9.97;100.00;101784.19;5015861;28;20022;-96
2024/02/03 06:57:40;;;;;;;24.13;4.40;;;;;;;9.92;100.00;101773.13;4997801;28;20468;-94
2024/02/03 07:00:05;;;;;;;26.73;4.20;;;;;;;9.94;100.00;101783.41;4998163;28;20076;-95
2024/02/03 07:02:31;;;;;;;24.30;5.10;;;;;;;9.90;100.00;101779.25;5015762;28;20085;-95
2024/02/03 07:04:56;;;;;;;30.00;4.88;;;;;;;9.84;100.00;101773.41;4998140;28;20030;-95
2024/02/03 07:07:21;;;;;;;23.83;4.68;;;;;;;10.00;100.00;101783.22;5015803;28;20523;-95
2024/02/03 07:09:47;;;;;;;21.83;3.90;;;;;;;9.91;100.00;101783.53;5014584;28;20022;-96
2024/02/03 07:12:12;;;;;;;24.30;4.30;;;;;;;9.98;100.00;101785.00;4998186;28;20022;-95
2024/02/03 07:14:38;;;;;;;18.65;5.63;;;;;;;10.07;100.00;101784.69;5015713;28;20076;-95
2024/02/03 07:17:03;;;;;;;22.02;5.15;;;;;;;9.99;100.00;101781.53;5015053;28;20117;-94
2024/02/03 07:19:29;;;;;;;15.30;3.88;;;;;;;10.16;100.00;101786.13;4998065;28;20109;-94
2024/02/03 07:21:54;;;;;;;21.45;5.40;;;;;;;10.14;100.00;101778.41;4998039;28;20030;-94
2024/02/03 07:24:19;;;;;;;16.05;3.33;;;;;;;10.17;100.00;101785.22;4997718;28;20022;-94
2024/02/03 07:26:45;;;;;;;14.68;3.05;;;;;;;10.17;100.00;101785.22;5015233;28;20440;-96
2024/02/03 07:29:10;;;;;;;14.95;5.32;;;;;;;10.11;100.00;101790.59;4997632;28;20006;-95
2024/02/03 07:31:35;;;;;;;16.25;3.90;;;;;;;10.07;100.00;101784.69;4997785;28;20037;-96
2024/02/03 07:34:01;;;;;;;15.35;3.38;;;;;;;10.10;100.00;101794.91;4997746;28;20054;-95
2024/02/03 07:36:27;;;;;;;11.95;2.97;;;;;;;10.10;100.00;101787.19;4997844;28;20022;-95
2024/02/03 07:38:53;;;;;;;18.60;1.90;;;;;;;10.16;100.00;101799.00;4997527;28;20402;-94
2024/02/03 07:41:19;;;;;;;6.00;1.85;;;;;;;10.17;100.00;101811.88;4997838;28;20026;-95
2024/02/03 07:43:44;;;;;;;5.63;1.35;;;;;;;10.12;100.00;101810.31;4997426;28;20527;-94
2024/02/03 07:46:10;;;;;;;4.68;1.42;;;;;;;10.10;100.00;101800.06;4997692;28;20030;-95
2024/02/03 07:48:36;;;;;;;9.70;1.23;;;;;;;9.95;100.00;101810.88;4997048;28;20026;-95
2024/02/03 07:51:01;;;;;;;7.15;2.08;;;;;;;9.97;100.00;101798.78;4997394;28;20079;-94
2024/02/03 07:53:27;;;;;;;8.90;1.33;;;;;;;9.96;100.00;101807.44;4997427;28;20121;-96
2024/02/03 07:55:52;;;;;;;4.30;1.27;;;;;;;10.00;100.00;101814.19;4997057;28;20071;-94
2024/02/03 07:58:18;;;;;;;6.60;1.48;;;;;;;9.97;100.00;101814.25;5014890;28;20096;-95
2024/02/03 08:00:44;;;;;;;7.63;1.27;;;;;;;10.08;100.00;101812.19;4997144;28;20180;-95
2024/02/03 08:03:09;;;;;;;6.25;1.77;;;;;;;10.10;100.00;101810.41;5014239;28;20526;-96
2024/02/03 08:05:34;;;;;;;4.70;1.13;;;;;;;10.14;100.00;101811.97;5014457;28;20034;-94
2024/02/03 08:08:00;;;;;;;9.52;1.65;;;;;;;10.20;100.00;101806.59;4997000;28;20030;-95
2024/02/03 08:10:28;;;;;;;8.55;1.58;;;;;;;10.15;100.00;101803.34;4997063;28;20026;-94
2024/02/03 08:12:53;;;;;;;11.52;3.67;;;;;;;10.14;100.00;101804.22;4996453;28;20041;-95
2024/02/03 08:15:19;;;;;;;7.32;2.88;;;;;;;10.17;100.00;101801.56;4997108;28;20026;-95
2024/02/03 08:17:45;;;;;;;4.93;1.60;;;;;;;10.13;100.00;101802.53;5012045;28;20026;-94
2024/02/03 08:20:12;;;;;;;8.25;1.67;;;;;;;10.21;100.00;101812.59;5014604;28;20046;-91
2024/02/03 08:22:39;;;;;;;6.43;1.80;;;;;;;10.11;100.00;101795.75;5011269;28;20057;-96
2024/02/03 08:25:06;;;;;;;9.95;1.50;;;;;;;10.24;100.00;101815.94;5012722;28;20518;-93
2024/02/03 08:27:31;;;;;;;4.28;2.00;;;;;;;10.15;100.00;101816.25;5013646;28;20034;-96
2024/02/03 08:29:57;;;;;;;6.78;1.88;;;;;;;10.28;100.00;101814.13;4997132;28;20072;-94
2024/02/03 08:32:24;;;;;;;11.40;2.33;;;;;;;10.18;100.00;101808.38;4995939;28;20034;-94
2024/02/03 08:34:49;;;;;;;5.63;1.58;;;;;;;10.31;100.00;101813.16;4996258;28;20053;-94
2024/02/03 08:37:15;;;;;;;8.77;2.05;;;;;;;10.28;100.00;101820.09;5012796;28;20045;-94
2024/02/03 08:39:40;;;;;;;10.45;2.25;;;;;;;10.27;100.00;101818.41;4995923;28;20029;-94
2024/02/03 08:42:06;;;;;;;5.32;1.67;;;;;;;10.22;100.00;101820.31;4995319;28;20022;-94
2024/02/03 08:44:31;;;;;;;8.50;2.10;;;;;;;10.20;100.00;101819.50;5013540;28;20022;-95
2024/02/03 08:46:56;;;;;;;6.32;2.40;;;;;;;10.26;100.00;101821.84;4994646;28;20068;-94
2024/02/03 08:49:22;;;;;;;8.25;1.95;;;;;;;10.30;100.00;101821.81;4994701;28;20026;-95
2024/02/03 08:51:47;;;;;;;7.72;2.80;;;;;;;10.25;100.00;101820.19;5012729;28;20030;-94
2024/02/03 08:54:12;;;;;;;9.55;2.22;;;;;;;10.17;100.00;101813.59;4996162;28;20507;-95
2024/02/03 08:56:38;;;;;;;5.88;1.80;;;;;;;10.34;100.00;101823.38;5012933;28;20376;-95
2024/02/03 08:59:03;;;;;;;6.72;1.70;;;;;;;10.17;100.00;101818.75;4991716;28;20014;-96
2024/02/03 09:01:28;;;;;;;9.40;2.05;;;;;;;10.24;100.00;101818.53;4994848;28;20380;-95
2024/02/03 09:03:54;;;;;;;12.55;3.72;;;;;;;10.31;100.00;101824.31;5013044;28;20022;-95
2024/02/03 09:06:19;;;;;;;7.55;2.45;;;;;;;10.31;100.00;101823.47;4995105;28;20053;-94
2024/02/03 09:08:45;;;;;;;11.93;2.50;;;;;;;10.15;100.00;101818.81;5011883;28;20038;-92
2024/02/03 09:11:10;;;;;;;14.48;3.92;;;;;;;10.15;100.00;101838.63;5012565;28;20486;-96
2024/02/03 09:13:35;;;;;;;11.45;3.83;;;;;;;10.18;100.00;101836.78;5012248;28;20045;-95
2024/02/03 09:16:01;;;;;;;15.90;3.90;;;;;;;10.14;100.00;101832.59;4994013;28;20112;-95
2024/02/03 09:18:26;;;;;;;16.05;4.43;;;;;;;10.14;100.00;101836.91;4994478;28;20075;-93
2024/02/03 09:20:51;;;;;;;15.48;4.28;;;;;;;10.04;100.00;101836.38;5003630;28;20475;-94
2024/02/03 09:23:17;;;;;;;26.30;5.88;;;;;;;10.09;100.00;101839.66;5000762;28;20033;-96
2024/02/03 09:25:42;;;;;;;18.23;5.50;;;;;;;10.16;100.00;101841.13;5002521;28;20025;-96
2024/02/03 09:28:07;;;;;;;17.48;4.35;;;;;;;10.10;100.00;101833.63;4995793;28;20133;-95
2024/02/03 09:30:33;;;;;;;17.40;5.50;;;;;;;10.11;100.00;101835.28;4994820;28;20022;-96
2024/02/03 09:32:58;;;;;;;17.52;4.70;;;;;;;10.09;100.00;101829.31;4994425;28;20040;-95
2024/02/03 09:35:24;;;;;;;16.48;5.40;;;;;;;10.09;100.00;101834.50;5001250;28;20101;-94
2024/02/03 09:37:49;;;;;;;18.73;5.20;;;;;;;9.96;100.00;101839.22;5012322;28;20446;-94
2024/02/03 09:40:23;;;;;;;64.75;8.45;;;;;;;10.05;100.00;101844.06;5002945;28;20018;-94
2024/02/03 09:42:49;;;;;;;18.35;5.47;;;;;;;10.11;100.00;101843.03;4995328;28;20030;-95
2024/02/03 09:45:14;;;;;;;23.65;5.40;;;;;;;10.10;100.00;101846.50;5000468;28;20031;-96
2024/02/03 09:47:45;;;;;;;16.25;5.25;;;;;;;10.08;100.00;101827.66;4993054;28;20025;-95
2024/02/03 09:50:11;;;;;;;17.58;5.05;;;;;;;10.06;100.00;101840.59;5012618;28;20022;-94
2024/02/03 09:52:37;;;;;;;15.60;4.40;;;;;;;10.01;100.00;101837.31;4993269;28;20061;-96
2024/02/03 09:55:03;;;;;;;10.75;3.40;;;;;;;10.07;100.00;101846.59;4989198;28;20022;-93
2024/02/03 09:57:29;;;;;;;9.10;2.90;;;;;;;10.12;100.00;101837.00;5008730;28;20075;-95
2024/02/03 09:59:56;;;;;;;11.65;3.65;;;;;;;10.04;100.00;101839.78;4994894;28;20021;-95
2024/02/03 10:02:22;;;;;;;12.02;3.00;;;;;;;10.15;100.00;101848.94;4987124;28;20045;-94
2024/02/03 10:04:47;;;;;;;10.23;2.88;;;;;;;10.11;100.00;101848.19;5007731;28;20044;-92
2024/02/03 10:07:18;;;;;;;15.60;3.75;;;;;;;10.13;100.00;101846.41;5003728;28;20380;-92
2024/02/03 10:09:43;;;;;;;18.80;4.78;;;;;;;10.16;100.00;101845.47;5012234;28;20020;-95
2024/02/03 10:12:19;;;;;;;14.80;3.60;;;;;;;10.02;100.00;101838.16;5010312;28;20375;-95
2024/02/03 10:14:45;;;;;;;15.73;4.18;;;;;;;10.20;100.00;101837.56;4995922;28;20026;-92
2024/02/03 10:17:10;;;;;;;12.98;3.53;;;;;;;10.22;100.00;101833.19;5010500;28;20026;-94
2024/02/03 10:19:35;;;;;;;10.43;4.95;;;;;;;10.22;100.00;101838.38;4990463;28;20030;-94
2024/02/03 10:22:01;;;;;;;9.00;3.17;;;;;;;10.16;100.00;101851.44;5011109;28;20049;-93
2024/02/03 10:24:28;;;;;;;11.95;3.60;;;;;;;10.22;100.00;101856.44;5005107;28;20028;-92
2024/02/03 10:26:58;;;;;;;7.72;2.70;;;;;;;10.25;100.00;101845.16;5009788;28;20013;-93
2024/02/03 10:29:23;;;;;;;8.07;2.45;;;;;;;10.22;100.00;101848.69;4993471;28;20430;-93
2024/02/03 10:31:49;;;;;;;7.43;2.88;;;;;;;10.13;100.00;101856.72;5008463;28;20026;-91
2024/02/03 10:34:14;;;;;;;5.50;2.28;;;;;;;10.27;100.00;101851.94;5013309;28;20022;-92
2024/02/03 10:36:40;;;;;;;8.00;2.28;;;;;;;10.23;100.00;101852.94;4993774;28;20113;-94
2024/02/03 10:39:06;;;;;;;9.07;2.30;;;;;;;10.16;100.00;101861.78;4994295;28;20022;-92
2024/02/03 10:41:36;;;;;;;6.32;2.25;;;;;;;10.20;100.00;101857.38;4993604;28;20022;-95
2024/02/03 10:44:03;;;;;;;5.68;1.92;;;;;;;10.35;100.00;101859.47;4995165;28;20384;-95
2024/02/03 10:46:30;;;;;;;7.22;2.20;;;;;;;10.39;100.00;101842.16;4993719;28;20029;-93
2024/02/03 10:48:59;;;;;;;7.22;2.95;;;;;;;10.33;100.00;101837.19;5012332;28;20495;-92
2024/02/03 10:51:28;;;;;;;8.20;2.67;;;;;;;10.44;100.00;101843.66;5012973;28;20030;-91
2024/02/03 10:53:59;;;;;;;8.15;2.75;;;;;;;10.34;100.00;101854.34;5015487;28;20037;-93
2024/02/03 10:56:28;;;;;;;9.87;2.43;;;;;;;10.32;100.00;101851.84;5014401;28;20526;-92
2024/02/03 10:58:54;;;;;;;7.90;2.95;;;;;;;10.26;100.00;101862.31;5013954;28;20379;-94
2024/02/03 11:01:21;;;;;;;10.20;2.45;;;;;;;10.31;100.00;101857.88;4997610;28;20021;-93
2024/02/03 11:03:47;;;;;;;10.68;2.38;;;;;;;10.36;100.00;101861.13;4994430;28;20134;-95
2024/02/03 11:06:22;;;;;;;8.32;2.80;;;;;;;10.31;100.00;101854.44;4998104;28;20116;-94
2024/02/03 11:08:47;;;;;;;5.32;2.05;;;;;;;10.19;100.00;101848.78;4998581;28;20092;-94